Time;durP1;ratioP1;P1;durP2;ratioP2;P2;SDS_P1;SDS_P2;PMS_P1;PMS_P2;Temp;Humidity;BMP_temperature;BMP_pressure;BME280_temperature;BME280_humidity;BME280_pressure;Samples;Min_cycle;Max_cycle;Signal;HPM_P1;HPM_P2
2022/07/01 00:00:33;;;;;;;5.38;2.42;;;;;;;16.38;76.72;100956.50;7384136;19;20011;-77
2022/07/01 00:03:00;;;;;;;3.80;0.30;;;;;;;16.39;76.93;100957.31;7381715;19;20015;-76
2022/07/01 00:05:27;;;;;;;1.85;0.22;;;;;;;16.38;77.23;100953.03;7378788;19;20778;-76
2022/07/01 00:07:54;;;;;;;2.45;0.30;;;;;;;16.38;76.48;100958.34;7381973;19;20015;-76
2022/07/01 00:10:21;;;;;;;2.22;0.20;;;;;;;16.34;76.14;100954.41;7382283;19;20002;-76
2022/07/01 00:12:48;;;;;;;2.83;1.10;;;;;;;16.30;76.35;100966.41;7382865;19;20035;-77
2022/07/01 00:15:15;;;;;;;5.30;0.30;;;;;;;16.29;77.28;100962.13;7381791;19;20500;-76
2022/07/01 00:17:43;;;;;;;3.55;0.20;;;;;;;16.29;76.34;100964.78;7382852;19;20010;-77
2022/07/01 00:20:11;;;;;;;1.30;0.30;;;;;;;16.27;76.51;100959.63;7379725;19;20021;-76
2022/07/01 00:22:38;;;;;;;4.57;0.30;;;;;;;16.26;76.55;100964.13;7380733;19;20355;-76
2022/07/01 00:25:07;;;;;;;1.67;0.20;;;;;;;16.25;76.42;100956.38;7381501;19;20007;-77
2022/07/01 00:27:39;;;;;;;7.75;3.03;;;;;;;16.27;77.46;100959.63;7383078;19;20041;-77
2022/07/01 00:30:08;;;;;;;3.53;0.20;;;;;;;16.27;76.79;100963.13;7380905;19;20079;-75
2022/07/01 00:32:38;;;;;;;2.67;0.40;;;;;;;16.25;76.61;100972.28;7382975;19;20010;-75
2022/07/01 00:35:05;;;;;;;2.05;0.25;;;;;;;16.21;76.59;100971.00;7380292;19;20020;-77
2022/07/01 00:37:32;;;;;;;1.17;0.20;;;;;;;16.17;76.53;100973.22;7382442;19;20010;-77
2022/07/01 00:39:59;;;;;;;3.88;0.20;;;;;;;16.15;76.48;100972.56;7383536;19;20510;-77
2022/07/01 00:42:26;;;;;;;4.47;1.40;;;;;;;16.15;77.52;100966.47;7383983;19;20392;-77
2022/07/01 00:44:53;;;;;;;3.08;0.30;;;;;;;16.14;77.63;100970.94;7388037;19;20046;-76
2022/07/01 00:47:20;;;;;;;1.98;0.20;;;;;;;16.15;77.08;100958.50;7387800;19;20590;-78
2022/07/01 00:49:47;;;;;;;4.38;0.20;;;;;;;16.14;77.04;100965.63;7386491;19;20010;-76
2022/07/01 00:52:14;;;;;;;1.50;0.20;;;;;;;16.15;76.67;100958.50;7389500;19;20094;-75
2022/07/01 00:54:42;;;;;;;3.58;0.50;;;;;;;16.14;76.69;100970.94;7390534;19;20006;-76
2022/07/01 00:57:12;;;;;;;4.07;0.55;;;;;;;16.15;77.53;100969.91;7388373;19;20023;-76
2022/07/01 00:59:39;;;;;;;2.53;0.82;;;;;;;16.16;77.24;100973.38;7388406;19;20063;-76
2022/07/01 01:02:08;;;;;;;1.95;0.20;;;;;;;16.14;76.68;100968.28;7388573;19;20022;-75
2022/07/01 01:04:35;;;;;;;3.22;0.30;;;;;;;16.14;76.88;100968.28;7388306;19;20019;-77
2022/07/01 01:07:16;;;;;;;4.82;0.35;;;;;;;16.13;76.88;100966.63;7384691;19;20113;-76
2022/07/01 01:09:44;;;;;;;2.65;0.22;;;;;;;16.10;77.16;100971.50;7387220;19;20025;-76
2022/07/01 01:12:13;;;;;;;3.05;1.17;;;;;;;16.07;77.63;100964.72;7389439;19;20007;-75
2022/07/01 01:14:57;;;;;;;2.55;0.20;;;;;;;16.05;77.13;100957.97;7390039;19;20482;-77
2022/07/01 01:17:24;;;;;;;2.17;0.20;;;;;;;16.03;77.37;100965.28;7390051;19;20510;-74
2022/07/01 01:19:51;;;;;;;3.30;0.30;;;;;;;16.03;77.59;100959.97;7384609;19;20414;-78
2022/07/01 01:22:18;;;;;;;5.47;0.32;;;;;;;16.04;77.43;100958.97;7385633;19;20719;-75
2022/07/01 01:24:49;;;;;;;2.80;0.30;;;;;;;16.06;77.18;100972.84;7377360;19;20018;-76
2022/07/01 01:27:16;;;;;;;12.73;6.68;;;;;;;16.06;77.44;100968.38;7387257;19;20544;-76
2022/07/01 01:29:43;;;;;;;1.00;0.30;;;;;;;16.08;77.99;100966.38;7386506;19;20014;-75
2022/07/01 01:32:11;;;;;;;6.72;0.50;;;;;;;16.09;77.21;100972.50;7391267;19;20018;-77
2022/07/01 01:34:39;;;;;;;2.10;0.30;;;;;;;16.05;77.19;100963.25;7391039;19;20049;-76
2022/07/01 01:37:09;;;;;;;4.20;0.52;;;;;;;16.01;77.15;100967.28;7389489;19;20453;-75
2022/07/01 01:39:39;;;;;;;3.67;0.38;;;;;;;16.01;77.38;100968.09;7389149;19;20037;-75
2022/07/01 01:42:06;;;;;;;3.55;0.40;;;;;;;16.01;77.54;100968.09;7389856;19;20006;-76
2022/07/01 01:44:33;;;;;;;4.60;0.45;;;;;;;16.03;78.34;100963.44;7389236;19;20018;-76
2022/07/01 01:47:01;;;;;;;2.88;0.32;;;;;;;16.05;77.94;100963.25;7388227;19;20488;-76
2022/07/01 01:49:29;;;;;;;2.58;0.55;;;;;;;16.04;77.55;100969.56;7388193;19;20512;-76
2022/07/01 01:51:59;;;;;;;6.35;0.73;;;;;;;16.03;77.80;100960.78;7388158;19;20415;-75
2022/07/01 01:54:27;;;;;;;4.93;0.30;;;;;;;16.05;77.86;100955.31;7388936;19;20078;-75
2022/07/01 01:56:54;;;;;;;2.58;0.30;;;;;;;16.08;78.47;100961.06;7388814;19;20023;-75
2022/07/01 01:59:22;;;;;;;5.35;0.60;;;;;;;16.09;78.10;100965.38;7390735;19;20289;-75
2022/07/01 02:01:49;;;;;;;4.88;0.30;;;;;;;16.10;78.57;100960.88;7386553;19;20014;-76
2022/07/01 02:04:17;;;;;;;2.35;0.30;;;;;;;16.10;78.05;100959.03;7387344;19;20022;-77
2022/07/01 02:06:44;;;;;;;4.95;0.65;;;;;;;16.11;78.05;100965.16;7386427;19;20027;-77
2022/07/01 02:09:13;;;;;;;3.03;0.40;;;;;;;16.10;77.71;100961.69;7386946;19;20025;-77
2022/07/01 02:11:43;;;;;;;5.00;0.30;;;;;;;16.08;77.52;100969.03;7382263;19;20011;-76
2022/07/01 02:14:23;;;;;;;4.97;1.25;;;;;;;16.09;78.08;100969.84;7386171;19;20110;-76
2022/07/01 02:16:54;;;;;;;1.83;0.57;;;;;;;16.08;78.86;100963.72;7389900;19;20014;-76
2022/07/01 02:19:21;;;;;;;5.75;0.32;;;;;;;16.08;78.21;100969.03;7381584;19;20032;-76
2022/07/01 02:21:50;;;;;;;2.10;0.20;;;;;;;16.09;78.15;100967.19;7388240;19;20332;-76
2022/07/01 02:24:18;;;;;;;2.88;0.30;;;;;;;16.08;78.20;100973.50;7387039;19;20014;-77
2022/07/01 02:26:45;;;;;;;2.30;0.40;;;;;;;16.06;78.24;100965.72;7388877;19;20017;-76
2022/07/01 02:29:13;;;;;;;1.77;0.30;;;;;;;16.05;78.22;100969.38;7387478;19;20014;-77
2022/07/01 02:31:40;;;;;;;10.13;2.88;;;;;;;16.06;78.86;100968.38;7388430;19;20022;-75
2022/07/01 02:34:07;;;;;;;2.72;0.50;;;;;;;16.07;79.41;100975.31;7386729;19;20014;-74
2022/07/01 02:36:34;;;;;;;4.60;0.52;;;;;;;16.05;78.68;100969.38;7385861;19;20025;-75
2022/07/01 02:39:01;;;;;;;4.43;0.28;;;;;;;16.04;78.70;100974.88;7386601;19;20062;-74
2022/07/01 02:41:28;;;;;;;3.53;1.05;;;;;;;16.01;78.83;100973.41;7387559;19;20011;-75
2022/07/01 02:43:54;;;;;;;5.13;0.30;;;;;;;16.02;78.74;100972.41;7388887;19;20025;-76
2022/07/01 02:46:21;;;;;;;3.38;0.30;;;;;;;16.04;78.73;100974.88;7387243;19;20014;-75
2022/07/01 02:48:48;;;;;;;2.80;0.43;;;;;;;16.09;80.24;100983.94;7386934;19;20127;-75
2022/07/01 02:51:15;;;;;;;2.65;0.30;;;;;;;16.13;78.92;100973.78;7384359;19;20017;-75
2022/07/01 02:53:42;;;;;;;2.80;0.40;;;;;;;16.09;78.23;100972.50;7389370;19;20022;-76
2022/07/01 02:56:09;;;;;;;3.60;0.30;;;;;;;16.07;78.57;100985.94;7386939;19;20014;-76
2022/07/01 02:58:36;;;;;;;5.05;0.32;;;;;;;16.05;78.70;100982.63;7387386;19;20015;-76
2022/07/01 03:01:03;;;;;;;1.90;0.30;;;;;;;16.08;78.66;100992.09;7386887;19;20613;-76
2022/07/01 03:03:30;;;;;;;6.15;0.50;;;;;;;16.07;78.49;100999.22;7386660;19;20010;-76
2022/07/01 03:05:57;;;;;;;3.75;0.40;;;;;;;16.05;79.48;100998.56;7382677;19;20132;-77
2022/07/01 03:08:23;;;;;;;3.00;0.40;;;;;;;16.04;79.06;100998.78;7385250;19;20038;-75
2022/07/01 03:10:51;;;;;;;2.92;0.45;;;;;;;16.02;79.05;101004.25;7388469;19;20026;-77
2022/07/01 03:13:19;;;;;;;4.60;0.60;;;;;;;16.00;79.11;101000.16;7385836;19;20103;-74
2022/07/01 03:15:46;;;;;;;2.05;0.30;;;;;;;15.98;79.05;101002.97;7385383;19;20007;-77
2022/07/01 03:18:16;;;;;;;2.88;0.32;;;;;;;15.99;79.15;101006.47;7387568;19;20018;-77
2022/07/01 03:20:43;;;;;;;2.40;0.77;;;;;;;16.00;79.79;101008.13;7384927;19;20094;-75
2022/07/01 03:23:09;;;;;;;5.38;0.40;;;;;;;16.01;79.37;101009.75;7386429;19;20711;-76
2022/07/01 03:25:37;;;;;;;4.28;0.30;;;;;;;15.99;79.40;101003.81;7385029;19;20018;-76
2022/07/01 03:28:04;;;;;;;2.38;0.30;;;;;;;15.98;79.14;101002.97;7384710;19;20081;-77
2022/07/01 03:30:31;;;;;;;2.28;0.30;;;;;;;15.97;79.16;101001.34;7386738;19;20010;-76
2022/07/01 03:32:58;;;;;;;2.97;0.40;;;;;;;15.96;79.27;101006.81;7386163;19;20015;-75
2022/07/01 03:35:45;;;;;;;3.10;0.32;;;;;;;15.92;79.19;100998.41;7385028;19;20036;-77
2022/07/01 03:38:12;;;;;;;3.47;0.57;;;;;;;15.92;80.01;101008.19;7386200;19;20097;-76
2022/07/01 03:40:39;;;;;;;2.83;0.50;;;;;;;15.88;79.58;101005.09;7384482;19;20045;-76
2022/07/01 03:43:07;;;;;;;1.45;0.40;;;;;;;15.85;79.42;101016.06;7386859;19;20082;-76
2022/07/01 03:45:33;;;;;;;1.98;0.30;;;;;;;15.87;79.69;101023.84;7385006;19;20487;-75
2022/07/01 03:48:02;;;;;;;3.50;0.40;;;;;;;15.86;79.69;101023.00;7383142;19;20021;-77
2022/07/01 03:50:29;;;;;;;3.33;0.30;;;;;;;15.85;79.56;101029.31;7382257;19;20041;-76
2022/07/01 03:55:42;;;;;;;4.97;0.50;;;;;;;15.87;80.20;101043.25;7384918;19;20400;-77
2022/07/01 03:58:09;;;;;;;2.17;0.40;;;;;;;15.86;80.32;101038.94;7384446;19;20018;-76
2022/07/01 04:00:37;;;;;;;2.25;0.30;;;;;;;15.89;79.74;101040.41;7382704;19;20014;-76
2022/07/01 04:03:05;;;;;;;4.82;0.50;;;;;;;15.86;79.65;101030.97;7385167;19;20019;-76
2022/07/01 04:05:37;;;;;;;1.67;0.30;;;;;;;15.86;79.65;101030.16;7381219;19;20501;-75
2022/07/01 04:08:05;;;;;;;1.88;0.30;;;;;;;15.81;79.65;101031.53;7382058;19;20062;-78
2022/07/01 04:10:33;;;;;;;2.45;0.30;;;;;;;15.81;79.83;101030.69;7386091;19;20021;-77
2022/07/01 04:13:01;;;;;;;4.20;0.40;;;;;;;15.83;80.04;101028.69;7386221;19;20013;-76
2022/07/01 04:15:48;;;;;;;2.58;0.38;;;;;;;15.83;79.99;101031.34;7383470;19;20427;-76
2022/07/01 04:18:16;;;;;;;3.63;0.35;;;;;;;15.83;80.13;101041.97;7392422;19;20042;-76
2022/07/01 04:20:42;;;;;;;5.78;0.90;;;;;;;15.81;80.06;101051.94;7388620;19;20030;-76
2022/07/01 04:23:29;;;;;;;1.73;0.32;;;;;;;15.83;80.21;101049.94;7392079;19;20014;-77
2022/07/01 04:25:57;;;;;;;3.25;0.30;;;;;;;15.82;80.02;101053.59;7391593;19;20014;-76
2022/07/01 04:28:44;;;;;;;2.72;0.47;;;;;;;15.83;80.00;101053.41;7391932;19;20007;-77
2022/07/01 04:31:11;;;;;;;5.03;0.30;;;;;;;15.85;80.58;101055.06;7390849;19;20082;-76
2022/07/01 04:33:37;;;;;;;1.55;0.35;;;;;;;15.86;80.28;101060.16;7392239;19;20070;-76
2022/07/01 04:36:04;;;;;;;2.67;0.40;;;;;;;15.86;80.21;101056.69;7389708;19;20028;-76
2022/07/01 04:38:31;;;;;;;4.43;0.40;;;;;;;15.90;80.26;101052.69;7390348;19;20074;-76
2022/07/01 04:43:43;;;;;;;4.13;0.50;;;;;;;15.89;80.72;101062.47;7391374;19;20007;-75
2022/07/01 04:46:10;;;;;;;2.97;0.40;;;;;;;15.93;80.90;101068.25;7390988;19;20081;-76
2022/07/01 04:48:37;;;;;;;2.08;0.30;;;;;;;15.92;80.53;101062.09;7388183;19;20002;-76
2022/07/01 04:51:04;;;;;;;2.67;0.43;;;;;;;15.89;80.13;101062.47;7389716;19;20082;-75
2022/07/01 04:53:31;;;;;;;2.58;0.40;;;;;;;15.87;80.37;101061.81;7388951;19;20634;-75
2022/07/01 04:55:58;;;;;;;4.28;0.45;;;;;;;15.87;80.60;101064.47;7390778;19;20074;-75
2022/07/01 04:58:25;;;;;;;4.03;0.30;;;;;;;15.90;80.68;101065.97;7392254;19;20010;-76
2022/07/01 05:00:52;;;;;;;3.05;0.40;;;;;;;15.88;80.91;101067.97;7390947;19;20348;-76
2022/07/01 05:03:19;;;;;;;2.47;0.50;;;;;;;15.86;80.87;101067.31;7391621;19;20014;-76
2022/07/01 05:05:46;;;;;;;4.88;0.70;;;;;;;15.84;81.03;101067.50;7388265;19;20018;-76
2022/07/01 05:08:13;;;;;;;2.30;0.30;;;;;;;15.86;81.06;101057.50;7388138;19;20019;-76
2022/07/01 05:10:40;;;;;;;3.72;0.40;;;;;;;15.90;80.84;101068.63;7389576;19;20007;-75
2022/07/01 05:13:07;;;;;;;3.60;0.60;;;;;;;15.86;80.78;101062.81;7389897;19;20547;-77
2022/07/01 05:15:34;;;;;;;5.32;1.38;;;;;;;15.88;81.20;101066.13;7389520;19;20018;-75
2022/07/01 05:23:38;;;;;;;4.13;0.47;;;;;;;15.93;81.41;101066.41;7392236;19;20039;-76
2022/07/01 05:26:04;;;;;;;1.65;0.40;;;;;;;15.93;81.23;101068.25;7389709;19;20017;-77
2022/07/01 05:28:37;;;;;;;4.28;0.60;;;;;;;15.94;81.34;101062.75;7388199;19;20085;-75
2022/07/01 05:31:04;;;;;;;3.80;0.30;;;;;;;15.94;81.42;101059.28;7390097;19;20034;-75
2022/07/01 05:33:31;;;;;;;1.65;0.63;;;;;;;15.96;81.57;101067.84;7391005;19;20033;-77
2022/07/01 05:35:57;;;;;;;4.55;0.43;;;;;;;15.93;82.00;101069.06;7388304;19;20028;-77
2022/07/01 05:38:24;;;;;;;3.53;1.20;;;;;;;15.98;81.49;101069.34;7389996;19;20019;-76
2022/07/01 05:40:52;;;;;;;4.00;0.50;;;;;;;15.97;81.62;101073.00;7389334;19;20018;-77
2022/07/01 05:43:20;;;;;;;2.15;0.40;;;;;;;16.01;80.91;101066.31;7391042;19;20011;-76
2022/07/01 05:45:47;;;;;;;2.60;0.50;;;;;;;16.02;81.59;101057.34;7389700;19;20026;-77
2022/07/01 05:48:14;;;;;;;1.38;0.30;;;;;;;16.05;81.59;101066.78;7390539;19;20098;-75
2022/07/01 05:50:43;;;;;;;4.13;0.57;;;;;;;16.07;82.37;101064.75;7385960;19;20010;-77
2022/07/01 05:53:10;;;;;;;2.08;0.50;;;;;;;16.05;81.29;101069.44;7389259;19;20473;-76
2022/07/01 05:55:37;;;;;;;2.42;0.30;;;;;;;16.05;81.45;101066.78;7388804;19;20014;-76
2022/07/01 05:58:06;;;;;;;3.33;0.35;;;;;;;16.04;81.37;101065.97;7391630;19;20097;-77
2022/07/01 06:00:33;;;;;;;2.88;0.40;;;;;;;16.05;80.96;101070.25;7389326;19;20134;-76
2022/07/01 06:03:00;;;;;;;8.75;0.52;;;;;;;16.05;81.16;101080.06;7390813;19;20021;-77
2022/07/01 06:05:29;;;;;;;4.47;0.85;;;;;;;16.12;81.11;101083.63;7387188;19;20478;-76
2022/07/01 06:07:56;;;;;;;3.72;0.55;;;;;;;16.18;81.52;101078.41;7388062;19;20082;-76
2022/07/01 06:10:23;;;;;;;3.08;0.50;;;;;;;16.21;80.82;101080.69;7388306;19;20086;-76
2022/07/01 06:12:50;;;;;;;1.85;0.40;;;;;;;16.19;80.44;101082.72;7390194;19;20011;-77
2022/07/01 06:15:17;;;;;;;3.47;0.40;;;;;;;16.25;80.58;101081.16;7389803;19;20441;-76
2022/07/01 06:17:44;;;;;;;1.90;0.47;;;;;;;16.28;80.20;101067.50;7388008;19;20011;-76
2022/07/01 06:20:11;;;;;;;3.70;0.60;;;;;;;16.26;80.11;101072.19;7385985;19;20682;-75
2022/07/01 06:22:38;;;;;;;3.35;0.40;;;;;;;16.27;80.36;101074.66;7388944;19;20043;-76
2022/07/01 06:25:05;;;;;;;3.58;0.40;;;;;;;16.34;81.25;101071.28;7387934;19;20094;-77
2022/07/01 06:27:40;;;;;;;3.35;0.43;;;;;;;16.41;80.79;101067.69;7388677;19;20023;-75
2022/07/01 06:30:09;;;;;;;1.80;0.30;;;;;;;16.44;80.21;101069.97;7385477;19;20029;-76
2022/07/01 06:32:37;;;;;;;2.03;0.40;;;;;;;16.47;79.89;101076.75;7387220;19;20010;-75
2022/07/01 06:35:05;;;;;;;3.00;0.38;;;;;;;16.52;79.88;101077.00;7387217;19;20102;-76
2022/07/01 06:37:33;;;;;;;1.05;0.32;;;;;;;16.56;78.82;101071.13;7386511;19;20015;-77
2022/07/01 06:40:01;;;;;;;6.10;1.60;;;;;;;16.60;79.76;101079.63;7387126;19;20018;-76
2022/07/01 06:42:28;;;;;;;2.33;0.57;;;;;;;16.63;78.92;101073.91;7389124;19;20340;-76
2022/07/01 06:44:55;;;;;;;3.63;0.50;;;;;;;16.70;79.09;101066.03;7387423;19;20561;-76
2022/07/01 06:47:26;;;;;;;3.00;0.45;;;;;;;16.72;78.85;101079.94;7385788;19;20123;-77
2022/07/01 06:49:53;;;;;;;4.55;0.50;;;;;;;16.75;78.53;101074.25;7383056;19;20483;-78
2022/07/01 06:52:22;;;;;;;2.55;0.50;;;;;;;16.78;77.79;101076.53;7386959;19;20119;-75
2022/07/01 06:54:49;;;;;;;1.83;0.50;;;;;;;16.76;77.83;101074.06;7385278;19;20007;-76
2022/07/01 06:57:29;;;;;;;4.47;0.70;;;;;;;16.75;78.46;101075.09;7386797;19;20039;-76
2022/07/01 06:59:56;;;;;;;1.60;0.77;;;;;;;16.80;78.61;101074.53;7388275;19;20351;-76
2022/07/01 07:02:22;;;;;;;5.43;0.70;;;;;;;16.87;78.54;101083.38;7387504;19;20090;-76
2022/07/01 07:04:57;;;;;;;5.15;1.52;;;;;;;16.91;77.63;101074.88;7382115;19;20054;-77
2022/07/01 07:07:27;;;;;;;3.60;0.80;;;;;;;16.99;77.56;101084.56;7385583;19;20003;-77
2022/07/01 07:09:55;;;;;;;7.78;1.40;;;;;;;17.00;77.53;101084.38;7384778;19;20018;-75
2022/07/01 07:12:24;;;;;;;5.90;1.83;;;;;;;17.04;77.84;101088.28;7388063;19;20011;-76
2022/07/01 07:14:51;;;;;;;8.10;1.50;;;;;;;17.10;77.87;101092.88;7385999;19;20047;-76
2022/07/01 07:17:26;;;;;;;4.47;1.40;;;;;;;17.16;76.98;101090.47;7386740;19;20416;-76
2022/07/01 07:19:55;;;;;;;22.63;5.28;;;;;;;17.21;76.68;101094.22;7385332;19;20011;-78
2022/07/01 07:22:22;;;;;;;7.82;2.00;;;;;;;17.22;75.80;101093.16;7386916;19;20353;-76
2022/07/01 07:24:49;;;;;;;6.43;1.52;;;;;;;17.27;75.77;101095.28;7385562;19;20045;-76
2022/07/01 07:27:25;;;;;;;3.60;1.10;;;;;;;17.33;75.99;101097.16;7387038;19;20018;-75
2022/07/01 07:29:56;;;;;;;7.45;1.08;;;;;;;17.41;76.27;101102.38;7385262;19;20015;-76
2022/07/01 07:32:23;;;;;;;8.45;2.00;;;;;;;17.46;75.65;101099.97;7385696;19;20018;-77
2022/07/01 07:34:50;;;;;;;6.53;1.92;;;;;;;17.51;75.50;101103.69;7384490;19;20394;-77
2022/07/01 07:37:32;;;;;;;5.38;0.90;;;;;;;17.55;74.97;101101.47;7383207;19;20427;-76
2022/07/01 07:40:00;;;;;;;9.18;1.45;;;;;;;17.64;74.78;101107.50;7385060;19;20035;-77
2022/07/01 07:42:27;;;;;;;4.75;0.50;;;;;;;17.67;74.07;101120.44;7383781;19;20082;-75
2022/07/01 07:44:55;;;;;;;4.22;0.60;;;;;;;17.76;73.61;101113.97;7386043;19;20007;-76
2022/07/01 07:47:24;;;;;;;3.17;0.50;;;;;;;17.95;73.41;101108.78;7384655;19;20082;-78
2022/07/01 07:49:51;;;;;;;2.78;0.55;;;;;;;18.12;72.45;101113.81;7382084;19;20011;-78
2022/07/01 07:52:18;;;;;;;1.25;0.50;;;;;;;18.19;71.43;101110.16;7387256;19;20495;-75
2022/07/01 07:54:45;;;;;;;3.88;0.50;;;;;;;18.21;70.84;101107.31;7390715;19;20017;-77
2022/07/01 07:57:24;;;;;;;6.57;0.43;;;;;;;18.18;70.90;101103.22;7393703;19;20492;-75
2022/07/01 07:59:56;;;;;;;1.92;0.40;;;;;;;18.17;70.69;101106.91;7393316;19;20022;-76
2022/07/01 08:02:22;;;;;;;1.67;0.50;;;;;;;18.19;74.35;101110.16;7393575;19;20419;-76
2022/07/01 08:04:50;;;;;;;2.22;0.45;;;;;;;18.12;70.91;101113.81;7393254;19;20406;-76
2022/07/01 08:07:29;;;;;;;3.60;0.47;;;;;;;18.00;70.64;101120.69;7390483;19;20018;-76
2022/07/01 08:09:56;;;;;;;1.17;0.40;;;;;;;17.86;69.10;101114.47;7390199;19;20018;-77
2022/07/01 08:12:25;;;;;;;5.18;0.40;;;;;;;17.77;69.82;101116.44;7393849;19;20014;-76
2022/07/01 08:14:52;;;;;;;3.05;0.80;;;;;;;17.83;71.76;101120.16;7393189;19;20019;-76
2022/07/01 08:17:29;;;;;;;2.65;0.70;;;;;;;17.87;74.81;101111.59;7392894;19;20074;-77
2022/07/01 08:19:56;;;;;;;7.32;1.33;;;;;;;17.93;73.54;101117.97;7387481;19;20015;-76
2022/07/01 08:22:23;;;;;;;5.65;0.77;;;;;;;17.99;73.56;101117.19;7390400;19;20488;-76
2022/07/01 08:24:50;;;;;;;3.90;0.52;;;;;;;18.08;72.97;101115.25;7392459;19;20018;-77
2022/07/01 08:27:28;;;;;;;5.18;0.70;;;;;;;18.09;70.79;101116.84;7393875;19;20073;-77
2022/07/01 08:29:55;;;;;;;2.50;0.47;;;;;;;18.12;72.05;101111.97;7387368;19;20015;-77
2022/07/01 08:32:25;;;;;;;3.35;1.33;;;;;;;18.18;70.78;101115.72;7350342;19;20035;-75
2022/07/01 08:34:53;;;;;;;6.32;4.05;;;;;;;18.24;70.81;101117.56;7380822;19;20127;-77
2022/07/01 08:37:26;;;;;;;3.67;0.50;;;;;;;18.21;68.76;101116.13;7388625;19;20178;-77
2022/07/01 08:39:53;;;;;;;3.30;0.52;;;;;;;18.19;68.71;101128.00;7387887;19;20037;-77
2022/07/01 08:42:22;;;;;;;1.90;0.30;;;;;;;18.16;68.23;101117.75;7390862;19;20014;-78
2022/07/01 08:44:48;;;;;;;3.08;0.45;;;;;;;18.19;69.46;101118.16;7390411;19;20468;-78
2022/07/01 08:47:31;;;;;;;10.77;3.38;;;;;;;18.27;69.96;101127.84;7391394;19;20031;-76
2022/07/01 08:50:02;;;;;;;4.43;0.50;;;;;;;18.31;68.99;101129.94;7384568;19;20023;-77
2022/07/01 08:52:29;;;;;;;20.95;2.72;;;;;;;18.40;67.45;101130.59;7391064;19;20364;-78
2022/07/01 08:54:57;;;;;;;4.47;0.70;;;;;;;18.51;67.96;101135.38;7389568;19;20036;-77
2022/07/01 08:57:30;;;;;;;0.77;0.40;;;;;;;18.58;64.30;101133.59;7391404;19;20010;-77
2022/07/01 09:00:07;;;;;;;1.73;0.40;;;;;;;18.60;64.48;101139.53;7391234;19;20450;-77
2022/07/01 09:02:56;;;;;;;5.78;0.32;;;;;;;18.64;64.68;101146.13;7386964;19;20369;-78
2022/07/01 09:05:24;;;;;;;3.72;0.38;;;;;;;18.66;65.56;101129.94;7383453;19;20019;-76
2022/07/01 09:07:57;;;;;;;5.22;0.30;;;;;;;18.67;65.13;101144.91;7387063;19;20042;-76
2022/07/01 09:10:24;;;;;;;2.97;0.40;;;;;;;18.66;64.22;101141.41;7387194;19;20018;-78
2022/07/01 09:12:52;;;;;;;2.42;0.30;;;;;;;18.68;64.40;101147.41;7390163;19;20010;-78
2022/07/01 09:15:30;;;;;;;2.15;0.40;;;;;;;18.71;64.87;101144.31;7388817;19;20018;-80
2022/07/01 09:18:05;;;;;;;1.90;0.30;;;;;;;18.75;64.16;101148.22;7388515;19;20015;-77
2022/07/01 09:20:37;;;;;;;1.60;0.30;;;;;;;18.78;63.28;101152.34;7387083;19;20007;-77
2022/07/01 09:23:15;;;;;;;2.75;0.32;;;;;;;18.80;62.80;101147.63;7387921;19;20022;-77
2022/07/01 09:25:43;;;;;;;1.95;0.30;;;;;;;18.77;61.15;101148.88;7387608;19;20022;-78
2022/07/01 09:28:23;;;;;;;4.20;0.65;;;;;;;18.78;61.80;101149.69;7388100;19;20047;-78
2022/07/01 09:30:52;;;;;;;3.33;0.50;;;;;;;18.88;62.60;101149.31;7385843;19;20409;-78
2022/07/01 09:33:20;;;;;;;21.15;11.43;;;;;;;19.02;62.80;101157.16;7386157;19;20066;-79
2022/07/01 09:35:50;;;;;;;7.95;3.22;;;;;;;19.08;61.11;101150.22;7384415;19;20018;-77
2022/07/01 09:38:20;;;;;;;6.50;0.40;;;;;;;19.08;61.02;101161.72;7388873;19;20098;-76
2022/07/01 09:41:03;;;;;;;12.70;0.60;;;;;;;19.13;61.20;101153.94;7387517;19;20051;-75
2022/07/01 09:43:33;;;;;;;5.45;0.30;;;;;;;19.18;60.54;101153.31;7388884;19;20070;-78
2022/07/01 09:46:09;;;;;;;1.70;0.30;;;;;;;19.29;60.22;101158.09;7388916;19;20015;-80
2022/07/01 09:48:36;;;;;;;2.00;0.30;;;;;;;19.39;60.38;101152.34;7386527;19;20026;-79
2022/07/01 09:51:05;;;;;;;9.13;0.70;;;;;;;19.47;61.04;101154.84;7379929;19;20082;-78
2022/07/01 09:53:39;;;;;;;1.48;0.40;;;;;;;19.57;60.61;101165.97;7385837;19;20252;-77
2022/07/01 09:56:07;;;;;;;193.82;17.30;;;;;;;19.73;60.61;101168.25;7385992;19;20025;-78
2022/07/01 09:58:37;;;;;;;9.20;0.85;;;;;;;19.87;59.23;101172.56;7382756;19;20392;-78
2022/07/01 10:01:08;;;;;;;11.45;1.45;;;;;;;20.00;58.90;101172.56;7386652;19;20048;-77
2022/07/01 10:03:41;;;;;;;12.13;1.42;;;;;;;20.04;57.76;101171.13;7385967;19;20483;-78
2022/07/01 10:06:33;;;;;;;7.40;0.52;;;;;;;20.04;58.11;101173.78;7386275;19;20019;-78
2022/07/01 10:09:22;;;;;;;501.83;40.95;;;;;;;20.06;58.92;101169.06;7385996;19;20558;-77
2022/07/01 10:12:11;;;;;;;67.43;11.65;;;;;;;20.21;58.10;101173.38;7388520;19;20026;-78
2022/07/01 10:14:40;;;;;;;171.23;12.93;;;;;;;20.31;57.06;101169.28;7385053;19;20014;-79
2022/07/01 10:17:08;;;;;;;18.80;1.65;;;;;;;20.35;56.97;101165.16;7387521;19;20025;-79
2022/07/01 10:19:35;;;;;;;38.05;3.50;;;;;;;20.41;58.59;101176.88;7385997;19;20010;-77
2022/07/01 10:22:31;;;;;;;2.50;0.50;;;;;;;20.54;57.18;101176.84;7382597;19;20014;-78
2022/07/01 10:25:38;;;;;;;3.53;0.40;;;;;;;20.63;55.66;101172.91;7381875;19;20467;-78
2022/07/01 10:28:18;;;;;;;13.60;0.88;;;;;;;20.73;56.79;101172.44;7390832;19;20034;-80
2022/07/01 10:30:59;;;;;;;2.97;0.40;;;;;;;20.83;56.54;101165.63;7384303;19;20010;-79
2022/07/01 10:33:28;;;;;;;5.15;0.50;;;;;;;20.84;56.00;101172.63;7379423;19;20052;-78
2022/07/01 10:35:55;;;;;;;27.08;1.58;;;;;;;20.79;55.13;101168.94;7378902;19;20007;-78
2022/07/01 10:38:22;;;;;;;122.20;8.95;;;;;;;20.74;55.97;101163.41;7386365;19;20030;-77
2022/07/01 10:40:49;;;;;;;51.67;2.95;;;;;;;20.70;55.06;101163.00;7384464;19;20070;-76
2022/07/01 10:43:37;;;;;;;22.00;2.45;;;;;;;20.68;56.23;101166.91;7385640;19;20019;-76
2022/07/01 10:46:04;;;;;;;7.10;0.60;;;;;;;20.62;56.14;101171.25;7385777;19;20569;-78
2022/07/01 10:48:33;;;;;;;29.08;2.67;;;;;;;20.60;55.62;101164.47;7385943;19;20010;-77
2022/07/01 10:51:00;;;;;;;11.85;1.75;;;;;;;20.56;55.70;101168.63;7384706;19;20094;-75
2022/07/01 10:53:47;;;;;;;9.95;0.50;;;;;;;20.56;55.12;101168.63;7384550;19;20051;-75
2022/07/01 10:56:38;;;;;;;14.05;1.98;;;;;;;20.52;55.27;101170.06;7382628;19;20375;-74
2022/07/01 10:59:06;;;;;;;10.32;0.40;;;;;;;20.45;55.55;101186.13;7386723;19;20022;-76
2022/07/01 11:01:33;;;;;;;6.22;0.30;;;;;;;20.41;54.96;101176.88;7386134;19;20014;-76
2022/07/01 11:04:01;;;;;;;6.88;0.55;;;;;;;20.39;57.30;101178.94;7384111;19;20475;-77
2022/07/01 11:06:29;;;;;;;9.15;0.50;;;;;;;20.33;56.93;101185.91;7382873;19;20391;-79
2022/07/01 11:08:58;;;;;;;1.58;0.30;;;;;;;20.29;56.94;101175.81;7385028;19;20015;-80
2022/07/01 11:11:25;;;;;;;5.82;0.20;;;;;;;20.21;56.52;101181.41;7379401;19;20027;-79
2022/07/01 11:13:57;;;;;;;5.32;0.40;;;;;;;20.17;56.22;101177.47;7386861;19;20028;-79
2022/07/01 11:16:24;;;;;;;5.63;0.40;;;;;;;20.12;57.92;101190.63;7385815;19;20007;-79
2022/07/01 11:18:53;;;;;;;4.25;0.32;;;;;;;20.12;58.17;101198.66;7385490;19;20014;-80
2022/07/01 11:21:20;;;;;;;4.32;0.93;;;;;;;20.13;61.02;101194.94;7383956;19;20534;-80
2022/07/01 11:23:54;;;;;;;4.05;0.40;;;;;;;20.10;61.23;101214.91;7386245;19;20022;-80
2022/07/01 11:26:24;;;;;;;1.48;0.30;;;;;;;20.04;62.57;101213.06;7385394;19;20010;-80
2022/07/01 11:29:33;;;;;;;6.80;0.40;;;;;;;19.96;64.00;101219.41;7386051;19;20486;-80
2022/07/01 11:32:02;;;;;;;2.67;0.35;;;;;;;19.86;65.04;101229.66;7384608;19;20333;-80
2022/07/01 11:34:30;;;;;;;3.53;0.30;;;;;;;19.78;66.20;101232.53;7385186;19;20090;-81
2022/07/01 11:40:11;;;;;;;141.02;13.13;;;;;;;19.60;69.60;101226.97;7383629;19;20014;-79
2022/07/01 11:42:39;;;;;;;10.40;0.63;;;;;;;19.48;68.83;101229.41;7387233;19;20014;-79
2022/07/01 11:45:24;;;;;;;;;;;;;;;19.40;68.79;101215.41;7383263;19;20366;-79
2022/07/01 11:47:51;;;;;;;3.13;0.50;;;;;;;19.32;69.38;101229.72;7387194;19;20416;-80
2022/07/01 11:50:19;;;;;;;1.88;0.40;;;;;;;19.28;69.64;101230.31;7383716;19;20014;-79